Skiathos, Hellas

02:52:EEST den 29. september 2016 (GMT +0300)
Skopelos Greece | | Change Station

H.o.h 259 ft 39.13 °N, 23.72 °E | Updated 3 seconds ago

Partly Cloudy
Delvis skyet
62.4 °F
Feels Like 62.4 °F
N
0.0
Vind Variabel Vind from Nord
Gusts 0.0 mph

I dag
High -- | Low -- °F
--% Chance of Precip.
I går
High -- | Low -- °F
Precip. -- tommer
Lufttrykk 30.36 tommer
Sikt 6.2 eng. mil
Skyet Few 4000 ft
Duggpunkt 54 °F
Fuktighet 73%
Regn 0.00 tommer
Snødybde Not available.
7:20 AM 7:11 PM
Minkende sigd, 4% visible
METAR LGBL 282250Z VRB02KT 9999 FEW040 13/09 Q1028 NOSIG BLU
Lufttrykk 30.36 tommer
Sikt 6.2 eng. mil
Skyet Few 4000 ft
Duggpunkt 54 °F
Fuktighet 73%
Regn 0.00 tommer
Snødybde Not available.
7:20 AM 7:11 PM
Minkende sigd, 4% visible
METAR LGBL 282250Z VRB02KT 9999 FEW040 13/09 Q1028 NOSIG BLU

10-Day Weather Forecast

×

Almanac

Astronomi

Sep. 29, 2016 Oppgang Nedgang
Virkelig tid
Tussmørke
Nautisk skumring
Astronomisk skumring
Månen
Lengde av synlig lys
Dagens lengde
Tomorrow will be .
, % of the Moon is Illuminated

Dagens maks og min

Country Highs Country Lows

Community

WunderPhotos

Upload Photos

1,942,354 photos uploaded!

WunderBlog® & News

Nearby

Luftkvalitet

  Luftkvalitet AQ Indeks Forurensing
Not available.

Snødybde

Stasjon Depth Høyde over havet

Earthquake Activity

By Distance Mag. Time & Date
Minimum magnitude displayed is 2.5.

Coastal Water Temperatures

Sted Temperatur

Stations

Nearby Weather Stations

Stasjonens lokasjon Temp. Nedkjølingseffekt Duggpunkt Fuktighet Vind Precip. H.o.h Oppdatert Type